sensor_id;sensor_type;location;lat;lon;timestamp;temperature;humidity
41427;DHT22;27171;51.812;19.514;2023-02-14T00:02:39;4.10;99.90
41427;DHT22;27171;51.812;19.514;2023-02-14T00:05:40;4.10;99.90
41427;DHT22;27171;51.812;19.514;2023-02-14T00:08:41;4.10;99.90
41427;DHT22;27171;51.812;19.514;2023-02-14T00:11:42;4.10;99.90
41427;DHT22;27171;51.812;19.514;2023-02-14T00:14:43;4.10;99.90
41427;DHT22;27171;51.812;19.514;2023-02-14T00:17:44;4.10;99.90
41427;DHT22;27171;51.812;19.514;2023-02-14T00:20:45;4.10;99.90
41427;DHT22;27171;51.812;19.514;2023-02-14T00:23:46;4.10;99.90
41427;DHT22;27171;51.812;19.514;2023-02-14T00:26:47;4.10;99.90
41427;DHT22;27171;51.812;19.514;2023-02-14T00:29:48;4.10;99.90
41427;DHT22;27171;51.812;19.514;2023-02-14T00:32:49;4.10;99.90
41427;DHT22;27171;51.812;19.514;2023-02-14T00:35:50;4.10;99.90
41427;DHT22;27171;51.812;19.514;2023-02-14T00:38:52;4.10;99.90
41427;DHT22;27171;51.812;19.514;2023-02-14T00:41:53;4.00;99.90
41427;DHT22;27171;51.812;19.514;2023-02-14T00:44:53;4.00;99.90
41427;DHT22;27171;51.812;19.514;2023-02-14T00:47:54;4.10;99.90
41427;DHT22;27171;51.812;19.514;2023-02-14T00:50:55;4.00;99.90
41427;DHT22;27171;51.812;19.514;2023-02-14T00:53:56;4.00;99.90
41427;DHT22;27171;51.812;19.514;2023-02-14T00:56:57;4.00;99.90
41427;DHT22;27171;51.812;19.514;2023-02-14T00:59:58;4.00;99.90
41427;DHT22;27171;51.812;19.514;2023-02-14T01:03:00;4.00;99.90
41427;DHT22;27171;51.812;19.514;2023-02-14T01:06:03;3.90;99.90
41427;DHT22;27171;51.812;19.514;2023-02-14T01:09:04;3.90;99.90
41427;DHT22;27171;51.812;19.514;2023-02-14T01:12:06;3.90;99.90
41427;DHT22;27171;51.812;19.514;2023-02-14T01:15:08;3.90;99.90
41427;DHT22;27171;51.812;19.514;2023-02-14T01:18:09;3.90;99.90
41427;DHT22;27171;51.812;19.514;2023-02-14T01:24:14;3.90;99.90
41427;DHT22;27171;51.812;19.514;2023-02-14T01:27:17;3.90;99.90
41427;DHT22;27171;51.812;19.514;2023-02-14T01:30:17;3.90;99.90
41427;DHT22;27171;51.812;19.514;2023-02-14T01:33:18;3.90;99.90
41427;DHT22;27171;51.812;19.514;2023-02-14T01:36:21;3.90;99.90
41427;DHT22;27171;51.812;19.514;2023-02-14T01:39:23;3.90;99.90
41427;DHT22;27171;51.812;19.514;2023-02-14T01:42:24;3.90;99.90
41427;DHT22;27171;51.812;19.514;2023-02-14T01:45:25;3.90;99.90
41427;DHT22;27171;51.812;19.514;2023-02-14T01:48:26;3.90;99.90
41427;DHT22;27171;51.812;19.514;2023-02-14T01:51:27;3.90;99.90
41427;DHT22;27171;51.812;19.514;2023-02-14T01:54:28;3.90;99.90
41427;DHT22;27171;51.812;19.514;2023-02-14T01:57:35;3.80;99.90
41427;DHT22;27171;51.812;19.514;2023-02-14T02:00:39;3.90;99.90
41427;DHT22;27171;51.812;19.514;2023-02-14T02:03:42;3.80;99.90
41427;DHT22;27171;51.812;19.514;2023-02-14T02:06:44;3.80;99.90
41427;DHT22;27171;51.812;19.514;2023-02-14T02:09:54;3.80;99.90
41427;DHT22;27171;51.812;19.514;2023-02-14T02:12:58;3.80;99.90
41427;DHT22;27171;51.812;19.514;2023-02-14T02:31:55;3.70;99.90
41427;DHT22;27171;51.812;19.514;2023-02-14T02:50:48;3.70;99.90
41427;DHT22;27171;51.812;19.514;2023-02-14T02:57:21;3.70;99.90
41427;DHT22;27171;51.812;19.514;2023-02-14T03:00:23;3.70;99.90
41427;DHT22;27171;51.812;19.514;2023-02-14T03:03:24;3.60;99.90
41427;DHT22;27171;51.812;19.514;2023-02-14T03:06:26;3.60;99.90
41427;DHT22;27171;51.812;19.514;2023-02-14T03:28:58;3.40;99.90
41427;DHT22;27171;51.812;19.514;2023-02-14T03:34:54;3.30;99.90
41427;DHT22;27171;51.812;19.514;2023-02-14T03:41:28;3.20;99.90
41427;DHT22;27171;51.812;19.514;2023-02-14T03:44:32;3.20;99.90
41427;DHT22;27171;51.812;19.514;2023-02-14T03:47:34;3.10;99.90
41427;DHT22;27171;51.812;19.514;2023-02-14T03:50:36;3.10;99.90
41427;DHT22;27171;51.812;19.514;2023-02-14T03:53:39;3.10;99.90
41427;DHT22;27171;51.812;19.514;2023-02-14T03:56:49;3.20;99.90
41427;DHT22;27171;51.812;19.514;2023-02-14T03:59:52;3.10;99.90
41427;DHT22;27171;51.812;19.514;2023-02-14T04:02:54;3.10;99.90
41427;DHT22;27171;51.812;19.514;2023-02-14T04:05:58;3.10;99.90
41427;DHT22;27171;51.812;19.514;2023-02-14T04:08:59;3.10;99.90
41427;DHT22;27171;51.812;19.514;2023-02-14T04:12:00;3.10;99.90
41427;DHT22;27171;51.812;19.514;2023-02-14T04:15:01;3.00;99.90
41427;DHT22;27171;51.812;19.514;2023-02-14T04:18:02;3.10;99.90
41427;DHT22;27171;51.812;19.514;2023-02-14T04:21:03;3.00;99.90
41427;DHT22;27171;51.812;19.514;2023-02-14T04:24:04;3.00;99.90
41427;DHT22;27171;51.812;19.514;2023-02-14T04:27:05;3.00;99.90
41427;DHT22;27171;51.812;19.514;2023-02-14T04:30:06;3.00;99.90
41427;DHT22;27171;51.812;19.514;2023-02-14T04:33:07;3.10;99.90
41427;DHT22;27171;51.812;19.514;2023-02-14T04:36:08;3.00;99.90
41427;DHT22;27171;51.812;19.514;2023-02-14T04:39:09;3.10;99.90
41427;DHT22;27171;51.812;19.514;2023-02-14T04:42:10;3.10;99.90
41427;DHT22;27171;51.812;19.514;2023-02-14T04:45:11;3.00;99.90
41427;DHT22;27171;51.812;19.514;2023-02-14T04:48:13;3.00;99.90
41427;DHT22;27171;51.812;19.514;2023-02-14T04:51:14;3.00;99.90
41427;DHT22;27171;51.812;19.514;2023-02-14T04:54:15;2.90;99.90
41427;DHT22;27171;51.812;19.514;2023-02-14T04:57:15;2.90;99.90
41427;DHT22;27171;51.812;19.514;2023-02-14T05:00:17;2.90;99.90
41427;DHT22;27171;51.812;19.514;2023-02-14T05:03:18;2.80;99.90
41427;DHT22;27171;51.812;19.514;2023-02-14T05:06:19;2.80;99.90
41427;DHT22;27171;51.812;19.514;2023-02-14T05:09:19;2.80;99.90
41427;DHT22;27171;51.812;19.514;2023-02-14T05:12:20;2.70;99.90
41427;DHT22;27171;51.812;19.514;2023-02-14T05:15:21;2.70;99.90
41427;DHT22;27171;51.812;19.514;2023-02-14T05:18:23;2.70;99.90
41427;DHT22;27171;51.812;19.514;2023-02-14T05:21:24;2.70;99.90
41427;DHT22;27171;51.812;19.514;2023-02-14T05:24:25;2.70;99.90
41427;DHT22;27171;51.812;19.514;2023-02-14T05:27:25;2.70;99.90
41427;DHT22;27171;51.812;19.514;2023-02-14T05:30:26;2.60;99.90
41427;DHT22;27171;51.812;19.514;2023-02-14T05:33:27;2.60;99.90
41427;DHT22;27171;51.812;19.514;2023-02-14T05:36:28;2.60;99.90
41427;DHT22;27171;51.812;19.514;2023-02-14T05:39:29;2.60;99.90
41427;DHT22;27171;51.812;19.514;2023-02-14T05:42:30;2.60;99.90
41427;DHT22;27171;51.812;19.514;2023-02-14T05:45:31;2.60;99.90
41427;DHT22;27171;51.812;19.514;2023-02-14T05:48:32;2.60;99.90
41427;DHT22;27171;51.812;19.514;2023-02-14T05:51:33;2.60;99.90
41427;DHT22;27171;51.812;19.514;2023-02-14T05:54:34;2.60;99.90
41427;DHT22;27171;51.812;19.514;2023-02-14T05:57:35;2.60;99.90
41427;DHT22;27171;51.812;19.514;2023-02-14T06:00:36;2.50;99.90
41427;DHT22;27171;51.812;19.514;2023-02-14T06:03:37;2.50;99.90
41427;DHT22;27171;51.812;19.514;2023-02-14T06:06:38;2.50;99.90
41427;DHT22;27171;51.812;19.514;2023-02-14T06:09:39;2.50;99.90
41427;DHT22;27171;51.812;19.514;2023-02-14T06:12:40;2.40;99.90
41427;DHT22;27171;51.812;19.514;2023-02-14T06:15:41;2.40;99.90
41427;DHT22;27171;51.812;19.514;2023-02-14T06:18:42;2.40;99.90
41427;DHT22;27171;51.812;19.514;2023-02-14T06:21:43;2.40;99.90
41427;DHT22;27171;51.812;19.514;2023-02-14T06:24:43;2.40;99.90
41427;DHT22;27171;51.812;19.514;2023-02-14T06:27:44;2.30;99.90
41427;DHT22;27171;51.812;19.514;2023-02-14T06:30:46;2.40;99.90
41427;DHT22;27171;51.812;19.514;2023-02-14T06:33:46;2.40;99.90
41427;DHT22;27171;51.812;19.514;2023-02-14T06:36:47;2.30;99.90
41427;DHT22;27171;51.812;19.514;2023-02-14T06:39:48;2.30;99.90
41427;DHT22;27171;51.812;19.514;2023-02-14T06:42:49;2.30;99.90
41427;DHT22;27171;51.812;19.514;2023-02-14T06:45:51;2.30;99.90
41427;DHT22;27171;51.812;19.514;2023-02-14T06:48:51;2.30;99.90
41427;DHT22;27171;51.812;19.514;2023-02-14T06:51:52;2.30;99.90
41427;DHT22;27171;51.812;19.514;2023-02-14T06:54:53;2.30;99.90
41427;DHT22;27171;51.812;19.514;2023-02-14T06:57:54;2.30;99.90
41427;DHT22;27171;51.812;19.514;2023-02-14T07:00:56;2.20;99.90
41427;DHT22;27171;51.812;19.514;2023-02-14T07:03:57;2.20;99.90
41427;DHT22;27171;51.812;19.514;2023-02-14T07:06:57;2.20;99.90
41427;DHT22;27171;51.812;19.514;2023-02-14T07:09:58;2.20;99.90
41427;DHT22;27171;51.812;19.514;2023-02-14T07:13:00;2.20;99.90
41427;DHT22;27171;51.812;19.514;2023-02-14T07:16:01;2.20;99.90
41427;DHT22;27171;51.812;19.514;2023-02-14T07:19:02;2.20;99.90
41427;DHT22;27171;51.812;19.514;2023-02-14T07:22:02;2.20;99.90
41427;DHT22;27171;51.812;19.514;2023-02-14T07:25:04;2.20;99.90
41427;DHT22;27171;51.812;19.514;2023-02-14T07:28:05;2.20;99.90
41427;DHT22;27171;51.812;19.514;2023-02-14T07:31:06;2.30;99.90
41427;DHT22;27171;51.812;19.514;2023-02-14T07:34:07;2.30;99.90
41427;DHT22;27171;51.812;19.514;2023-02-14T07:37:08;2.30;99.90
41427;DHT22;27171;51.812;19.514;2023-02-14T07:40:09;2.30;99.90
41427;DHT22;27171;51.812;19.514;2023-02-14T07:43:10;2.30;99.90
41427;DHT22;27171;51.812;19.514;2023-02-14T07:46:11;2.40;99.90
41427;DHT22;27171;51.812;19.514;2023-02-14T07:49:12;2.40;99.90
41427;DHT22;27171;51.812;19.514;2023-02-14T07:52:13;2.40;99.90
41427;DHT22;27171;51.812;19.514;2023-02-14T07:55:14;2.40;99.90
41427;DHT22;27171;51.812;19.514;2023-02-14T07:58:15;2.50;99.90
41427;DHT22;27171;51.812;19.514;2023-02-14T08:01:16;2.50;99.90
41427;DHT22;27171;51.812;19.514;2023-02-14T08:04:17;2.50;99.90
41427;DHT22;27171;51.812;19.514;2023-02-14T08:07:18;2.60;99.90
41427;DHT22;27171;51.812;19.514;2023-02-14T08:10:19;2.60;99.90
41427;DHT22;27171;51.812;19.514;2023-02-14T08:13:20;2.60;99.90
41427;DHT22;27171;51.812;19.514;2023-02-14T08:16:21;2.70;99.90
41427;DHT22;27171;51.812;19.514;2023-02-14T08:19:22;2.70;99.90
41427;DHT22;27171;51.812;19.514;2023-02-14T08:22:22;2.70;99.90
41427;DHT22;27171;51.812;19.514;2023-02-14T08:25:23;2.80;99.90
41427;DHT22;27171;51.812;19.514;2023-02-14T08:28:24;2.80;99.90
41427;DHT22;27171;51.812;19.514;2023-02-14T08:31:27;2.80;99.90
41427;DHT22;27171;51.812;19.514;2023-02-14T08:34:28;2.90;99.90
41427;DHT22;27171;51.812;19.514;2023-02-14T08:37:29;2.90;99.90
41427;DHT22;27171;51.812;19.514;2023-02-14T08:40:30;2.90;99.90
41427;DHT22;27171;51.812;19.514;2023-02-14T08:43:31;3.00;99.90
41427;DHT22;27171;51.812;19.514;2023-02-14T08:46:32;3.00;99.90
41427;DHT22;27171;51.812;19.514;2023-02-14T08:49:33;3.00;99.90
41427;DHT22;27171;51.812;19.514;2023-02-14T08:52:34;3.00;99.90
41427;DHT22;27171;51.812;19.514;2023-02-14T08:55:35;3.10;99.90
41427;DHT22;27171;51.812;19.514;2023-02-14T08:58:36;3.10;99.90
41427;DHT22;27171;51.812;19.514;2023-02-14T09:01:37;3.10;99.90
41427;DHT22;27171;51.812;19.514;2023-02-14T09:04:38;3.10;99.90
41427;DHT22;27171;51.812;19.514;2023-02-14T09:07:39;3.10;99.90
41427;DHT22;27171;51.812;19.514;2023-02-14T09:10:40;3.10;99.90
41427;DHT22;27171;51.812;19.514;2023-02-14T09:13:41;3.10;99.90
41427;DHT22;27171;51.812;19.514;2023-02-14T09:16:42;3.10;99.90
41427;DHT22;27171;51.812;19.514;2023-02-14T09:19:43;3.10;99.90
41427;DHT22;27171;51.812;19.514;2023-02-14T09:22:44;3.10;99.90
41427;DHT22;27171;51.812;19.514;2023-02-14T09:25:45;3.10;99.90
41427;DHT22;27171;51.812;19.514;2023-02-14T09:28:46;3.10;99.90
41427;DHT22;27171;51.812;19.514;2023-02-14T09:31:47;3.10;99.90
41427;DHT22;27171;51.812;19.514;2023-02-14T09:34:48;3.10;99.90
41427;DHT22;27171;51.812;19.514;2023-02-14T09:37:49;3.10;99.90
41427;DHT22;27171;51.812;19.514;2023-02-14T09:40:50;3.10;99.90
41427;DHT22;27171;51.812;19.514;2023-02-14T09:47:41;3.20;99.90
41427;DHT22;27171;51.812;19.514;2023-02-14T09:53:27;3.30;99.90
41427;DHT22;27171;51.812;19.514;2023-02-14T09:59:42;3.30;99.90
41427;DHT22;27171;51.812;19.514;2023-02-14T10:05:47;3.30;99.90
41427;DHT22;27171;51.812;19.514;2023-02-14T10:11:54;3.30;99.90
41427;DHT22;27171;51.812;19.514;2023-02-14T10:14:58;3.30;99.90
41427;DHT22;27171;51.812;19.514;2023-02-14T10:18:02;3.30;99.90
41427;DHT22;27171;51.812;19.514;2023-02-14T10:21:04;3.30;99.90
41427;DHT22;27171;51.812;19.514;2023-02-14T10:30:25;3.40;99.90
41427;DHT22;27171;51.812;19.514;2023-02-14T10:33:27;3.40;99.90
41427;DHT22;27171;51.812;19.514;2023-02-14T10:36:46;3.40;99.90
41427;DHT22;27171;51.812;19.514;2023-02-14T10:54:20;3.40;99.90
41427;DHT22;27171;51.812;19.514;2023-02-14T10:57:32;3.40;99.90
41427;DHT22;27171;51.812;19.514;2023-02-14T11:00:37;3.40;99.90
41427;DHT22;27171;51.812;19.514;2023-02-14T11:03:41;3.40;99.90
41427;DHT22;27171;51.812;19.514;2023-02-14T11:06:45;3.40;99.90
41427;DHT22;27171;51.812;19.514;2023-02-14T11:09:47;3.40;99.90
41427;DHT22;27171;51.812;19.514;2023-02-14T11:12:48;3.50;99.90
41427;DHT22;27171;51.812;19.514;2023-02-14T11:15:50;3.50;99.90
41427;DHT22;27171;51.812;19.514;2023-02-14T11:22:28;3.50;99.90
41427;DHT22;27171;51.812;19.514;2023-02-14T11:25:30;3.60;99.90
41427;DHT22;27171;51.812;19.514;2023-02-14T11:28:33;3.70;99.90
41427;DHT22;27171;51.812;19.514;2023-02-14T11:31:36;3.70;99.90
41427;DHT22;27171;51.812;19.514;2023-02-14T11:34:45;3.80;99.90
41427;DHT22;27171;51.812;19.514;2023-02-14T11:37:51;3.90;99.90
41427;DHT22;27171;51.812;19.514;2023-02-14T11:40:54;3.90;99.90
41427;DHT22;27171;51.812;19.514;2023-02-14T11:44:13;3.90;99.90
41427;DHT22;27171;51.812;19.514;2023-02-14T11:47:29;3.80;99.90
41427;DHT22;27171;51.812;19.514;2023-02-14T11:50:31;3.90;99.90
41427;DHT22;27171;51.812;19.514;2023-02-14T11:53:47;3.90;99.90
41427;DHT22;27171;51.812;19.514;2023-02-14T11:56:54;3.90;99.90
41427;DHT22;27171;51.812;19.514;2023-02-14T11:59:58;4.00;99.90
41427;DHT22;27171;51.812;19.514;2023-02-14T12:03:02;4.00;99.90
41427;DHT22;27171;51.812;19.514;2023-02-14T12:06:05;4.00;99.90
41427;DHT22;27171;51.812;19.514;2023-02-14T12:09:23;4.10;99.90
41427;DHT22;27171;51.812;19.514;2023-02-14T12:12:25;4.10;99.90
41427;DHT22;27171;51.812;19.514;2023-02-14T12:15:36;4.10;99.90
41427;DHT22;27171;51.812;19.514;2023-02-14T12:21:58;4.10;99.90
41427;DHT22;27171;51.812;19.514;2023-02-14T12:25:24;4.10;99.90
41427;DHT22;27171;51.812;19.514;2023-02-14T12:28:35;4.10;99.90
41427;DHT22;27171;51.812;19.514;2023-02-14T12:31:39;4.00;99.90
41427;DHT22;27171;51.812;19.514;2023-02-14T12:34:40;4.10;99.90
41427;DHT22;27171;51.812;19.514;2023-02-14T12:37:54;4.10;99.90
41427;DHT22;27171;51.812;19.514;2023-02-14T12:44:38;4.10;99.90
41427;DHT22;27171;51.812;19.514;2023-02-14T12:51:12;4.00;99.90
41427;DHT22;27171;51.812;19.514;2023-02-14T13:00:54;4.00;99.90
41427;DHT22;27171;51.812;19.514;2023-02-14T13:13:59;4.00;99.90
41427;DHT22;27171;51.812;19.514;2023-02-14T13:23:33;4.00;99.90
41427;DHT22;27171;51.812;19.514;2023-02-14T13:26:37;4.00;99.90
41427;DHT22;27171;51.812;19.514;2023-02-14T13:29:51;4.00;99.90
41427;DHT22;27171;51.812;19.514;2023-02-14T13:32:57;4.00;99.90
41427;DHT22;27171;51.812;19.514;2023-02-14T13:36:06;4.00;99.90
41427;DHT22;27171;51.812;19.514;2023-02-14T13:39:17;3.90;99.90
41427;DHT22;27171;51.812;19.514;2023-02-14T13:45:53;3.90;99.90
41427;DHT22;27171;51.812;19.514;2023-02-14T13:49:19;3.90;99.90
41427;DHT22;27171;51.812;19.514;2023-02-14T13:52:41;3.90;99.90
41427;DHT22;27171;51.812;19.514;2023-02-14T13:55:43;3.90;99.90
41427;DHT22;27171;51.812;19.514;2023-02-14T13:58:59;3.90;99.90
41427;DHT22;27171;51.812;19.514;2023-02-14T14:14:33;3.80;99.90
41427;DHT22;27171;51.812;19.514;2023-02-14T14:20:44;3.90;99.90
41427;DHT22;27171;51.812;19.514;2023-02-14T14:30:30;3.80;99.90
41427;DHT22;27171;51.812;19.514;2023-02-14T14:33:33;3.80;99.90
41427;DHT22;27171;51.812;19.514;2023-02-14T14:36:34;3.80;99.90
41427;DHT22;27171;51.812;19.514;2023-02-14T14:39:35;3.70;99.90
41427;DHT22;27171;51.812;19.514;2023-02-14T14:42:38;3.80;99.90
41427;DHT22;27171;51.812;19.514;2023-02-14T14:45:40;3.80;99.90
41427;DHT22;27171;51.812;19.514;2023-02-14T14:48:46;3.80;99.90
41427;DHT22;27171;51.812;19.514;2023-02-14T14:51:48;3.70;99.90
41427;DHT22;27171;51.812;19.514;2023-02-14T14:54:49;3.70;99.90
41427;DHT22;27171;51.812;19.514;2023-02-14T14:57:52;3.70;99.90
41427;DHT22;27171;51.812;19.514;2023-02-14T15:00:55;3.70;99.90
41427;DHT22;27171;51.812;19.514;2023-02-14T15:07:20;3.60;99.90
41427;DHT22;27171;51.812;19.514;2023-02-14T15:10:29;3.60;99.90
41427;DHT22;27171;51.812;19.514;2023-02-14T15:19:50;3.60;99.90
41427;DHT22;27171;51.812;19.514;2023-02-14T15:22:52;3.60;99.90
41427;DHT22;27171;51.812;19.514;2023-02-14T15:25:53;3.60;99.90
41427;DHT22;27171;51.812;19.514;2023-02-14T15:28:59;3.60;99.90
41427;DHT22;27171;51.812;19.514;2023-02-14T15:32:00;3.60;99.90
41427;DHT22;27171;51.812;19.514;2023-02-14T15:35:05;3.60;99.90
41427;DHT22;27171;51.812;19.514;2023-02-14T15:38:09;3.60;99.90
41427;DHT22;27171;51.812;19.514;2023-02-14T15:41:13;3.60;99.90
41427;DHT22;27171;51.812;19.514;2023-02-14T15:44:22;3.50;99.90
41427;DHT22;27171;51.812;19.514;2023-02-14T15:47:24;3.50;99.90
41427;DHT22;27171;51.812;19.514;2023-02-14T15:50:33;3.50;99.90
41427;DHT22;27171;51.812;19.514;2023-02-14T15:56:44;3.50;99.90
41427;DHT22;27171;51.812;19.514;2023-02-14T15:59:46;3.50;99.90
41427;DHT22;27171;51.812;19.514;2023-02-14T16:02:54;3.50;99.90
41427;DHT22;27171;51.812;19.514;2023-02-14T16:05:56;3.50;99.90
41427;DHT22;27171;51.812;19.514;2023-02-14T16:08:57;3.50;99.90
41427;DHT22;27171;51.812;19.514;2023-02-14T16:11:59;3.40;99.90
41427;DHT22;27171;51.812;19.514;2023-02-14T16:15:19;3.40;99.90
41427;DHT22;27171;51.812;19.514;2023-02-14T16:21:35;3.40;99.90
41427;DHT22;27171;51.812;19.514;2023-02-14T16:24:36;3.40;99.90
41427;DHT22;27171;51.812;19.514;2023-02-14T16:27:37;3.40;99.90
41427;DHT22;27171;51.812;19.514;2023-02-14T16:30:38;3.30;99.90
41427;DHT22;27171;51.812;19.514;2023-02-14T16:33:40;3.40;99.90
41427;DHT22;27171;51.812;19.514;2023-02-14T16:36:41;3.30;99.90
41427;DHT22;27171;51.812;19.514;2023-02-14T16:39:42;3.30;99.90
41427;DHT22;27171;51.812;19.514;2023-02-14T16:42:43;3.30;99.90
41427;DHT22;27171;51.812;19.514;2023-02-14T16:45:44;3.30;99.90
41427;DHT22;27171;51.812;19.514;2023-02-14T16:48:46;3.30;99.90
41427;DHT22;27171;51.812;19.514;2023-02-14T16:51:47;3.30;99.90
41427;DHT22;27171;51.812;19.514;2023-02-14T16:54:48;3.40;99.90
41427;DHT22;27171;51.812;19.514;2023-02-14T16:57:51;3.30;99.90
41427;DHT22;27171;51.812;19.514;2023-02-14T17:00:52;3.40;99.90
41427;DHT22;27171;51.812;19.514;2023-02-14T17:03:53;3.40;99.90
41427;DHT22;27171;51.812;19.514;2023-02-14T17:06:54;3.40;99.90
41427;DHT22;27171;51.812;19.514;2023-02-14T17:10:01;3.40;99.90
41427;DHT22;27171;51.812;19.514;2023-02-14T17:13:03;3.40;99.90
41427;DHT22;27171;51.812;19.514;2023-02-14T17:16:05;3.40;99.90
41427;DHT22;27171;51.812;19.514;2023-02-14T17:19:06;3.40;99.90
41427;DHT22;27171;51.812;19.514;2023-02-14T17:22:08;3.50;99.90
41427;DHT22;27171;51.812;19.514;2023-02-14T17:25:10;3.50;99.90
41427;DHT22;27171;51.812;19.514;2023-02-14T17:28:11;3.50;99.90
41427;DHT22;27171;51.812;19.514;2023-02-14T17:31:12;3.40;99.90
41427;DHT22;27171;51.812;19.514;2023-02-14T17:34:13;3.40;99.90
41427;DHT22;27171;51.812;19.514;2023-02-14T17:37:15;3.40;99.90
41427;DHT22;27171;51.812;19.514;2023-02-14T17:40:15;3.40;99.90
41427;DHT22;27171;51.812;19.514;2023-02-14T17:43:16;3.40;99.90
41427;DHT22;27171;51.812;19.514;2023-02-14T17:46:17;3.40;99.90
41427;DHT22;27171;51.812;19.514;2023-02-14T17:49:19;3.40;99.90
41427;DHT22;27171;51.812;19.514;2023-02-14T17:52:20;3.40;99.90
41427;DHT22;27171;51.812;19.514;2023-02-14T17:55:21;3.40;99.90
41427;DHT22;27171;51.812;19.514;2023-02-14T17:58:22;3.50;99.90
41427;DHT22;27171;51.812;19.514;2023-02-14T18:01:26;3.40;99.90
41427;DHT22;27171;51.812;19.514;2023-02-14T18:04:28;3.40;99.90
41427;DHT22;27171;51.812;19.514;2023-02-14T18:07:30;3.40;99.90
41427;DHT22;27171;51.812;19.514;2023-02-14T18:10:32;3.40;99.90
41427;DHT22;27171;51.812;19.514;2023-02-14T18:13:36;3.40;99.90
41427;DHT22;27171;51.812;19.514;2023-02-14T18:16:38;3.40;99.90
41427;DHT22;27171;51.812;19.514;2023-02-14T18:19:41;3.40;99.90
41427;DHT22;27171;51.812;19.514;2023-02-14T18:22:43;3.40;99.90
41427;DHT22;27171;51.812;19.514;2023-02-14T18:25:52;3.50;99.90
41427;DHT22;27171;51.812;19.514;2023-02-14T18:28:53;3.40;99.90
41427;DHT22;27171;51.812;19.514;2023-02-14T18:31:54;3.50;99.90
41427;DHT22;27171;51.812;19.514;2023-02-14T18:34:55;3.40;99.90
41427;DHT22;27171;51.812;19.514;2023-02-14T18:37:57;3.50;99.90
41427;DHT22;27171;51.812;19.514;2023-02-14T18:41:04;3.40;99.90
41427;DHT22;27171;51.812;19.514;2023-02-14T18:44:06;3.50;99.90
41427;DHT22;27171;51.812;19.514;2023-02-14T18:47:07;3.40;99.90
41427;DHT22;27171;51.812;19.514;2023-02-14T18:50:09;3.40;99.90
41427;DHT22;27171;51.812;19.514;2023-02-14T18:53:11;3.40;99.90
41427;DHT22;27171;51.812;19.514;2023-02-14T18:56:13;3.40;99.90
41427;DHT22;27171;51.812;19.514;2023-02-14T18:59:14;3.40;99.90
41427;DHT22;27171;51.812;19.514;2023-02-14T19:02:15;3.40;99.90
41427;DHT22;27171;51.812;19.514;2023-02-14T19:05:16;3.40;99.90
41427;DHT22;27171;51.812;19.514;2023-02-14T19:08:17;3.40;99.90
41427;DHT22;27171;51.812;19.514;2023-02-14T19:11:19;3.30;99.90
41427;DHT22;27171;51.812;19.514;2023-02-14T19:14:21;3.30;99.90
41427;DHT22;27171;51.812;19.514;2023-02-14T19:17:22;3.30;99.90
41427;DHT22;27171;51.812;19.514;2023-02-14T19:20:23;3.30;99.90
41427;DHT22;27171;51.812;19.514;2023-02-14T19:23:24;3.30;99.90
41427;DHT22;27171;51.812;19.514;2023-02-14T19:26:26;3.30;99.90
41427;DHT22;27171;51.812;19.514;2023-02-14T19:29:27;3.30;99.90
41427;DHT22;27171;51.812;19.514;2023-02-14T19:32:28;3.40;99.90
41427;DHT22;27171;51.812;19.514;2023-02-14T19:35:29;3.40;99.90
41427;DHT22;27171;51.812;19.514;2023-02-14T19:38:30;3.40;99.90
41427;DHT22;27171;51.812;19.514;2023-02-14T19:41:32;3.40;99.90
41427;DHT22;27171;51.812;19.514;2023-02-14T19:44:33;3.40;99.90
41427;DHT22;27171;51.812;19.514;2023-02-14T19:47:34;3.40;99.90
41427;DHT22;27171;51.812;19.514;2023-02-14T19:50:37;3.40;99.90
41427;DHT22;27171;51.812;19.514;2023-02-14T19:53:38;3.40;99.90
41427;DHT22;27171;51.812;19.514;2023-02-14T19:56:44;3.50;99.90
41427;DHT22;27171;51.812;19.514;2023-02-14T19:59:46;3.50;99.90
41427;DHT22;27171;51.812;19.514;2023-02-14T20:02:47;3.50;99.90
41427;DHT22;27171;51.812;19.514;2023-02-14T20:05:49;3.50;99.90
41427;DHT22;27171;51.812;19.514;2023-02-14T20:08:51;3.50;99.90
41427;DHT22;27171;51.812;19.514;2023-02-14T20:11:56;3.50;99.90
41427;DHT22;27171;51.812;19.514;2023-02-14T20:14:57;3.50;99.90
41427;DHT22;27171;51.812;19.514;2023-02-14T20:17:58;3.50;99.90
41427;DHT22;27171;51.812;19.514;2023-02-14T20:20:59;3.50;99.90
41427;DHT22;27171;51.812;19.514;2023-02-14T20:24:02;3.50;99.90
41427;DHT22;27171;51.812;19.514;2023-02-14T20:27:03;3.40;99.90
41427;DHT22;27171;51.812;19.514;2023-02-14T20:30:04;3.50;99.90
41427;DHT22;27171;51.812;19.514;2023-02-14T20:33:05;3.50;99.90
41427;DHT22;27171;51.812;19.514;2023-02-14T20:36:07;3.50;99.90
41427;DHT22;27171;51.812;19.514;2023-02-14T20:39:10;3.50;99.90
41427;DHT22;27171;51.812;19.514;2023-02-14T20:42:12;3.50;99.90
41427;DHT22;27171;51.812;19.514;2023-02-14T20:45:13;3.50;99.90
41427;DHT22;27171;51.812;19.514;2023-02-14T20:48:14;3.50;99.90
41427;DHT22;27171;51.812;19.514;2023-02-14T20:51:16;3.50;99.90
41427;DHT22;27171;51.812;19.514;2023-02-14T20:54:20;3.50;99.90
41427;DHT22;27171;51.812;19.514;2023-02-14T20:57:21;3.50;99.90
41427;DHT22;27171;51.812;19.514;2023-02-14T21:00:22;3.50;99.90
41427;DHT22;27171;51.812;19.514;2023-02-14T21:03:23;3.50;99.90
41427;DHT22;27171;51.812;19.514;2023-02-14T21:06:27;3.50;99.90
41427;DHT22;27171;51.812;19.514;2023-02-14T21:09:28;3.50;99.90
41427;DHT22;27171;51.812;19.514;2023-02-14T21:12:29;3.50;99.90
41427;DHT22;27171;51.812;19.514;2023-02-14T21:15:30;3.50;99.90
41427;DHT22;27171;51.812;19.514;2023-02-14T21:18:32;3.50;99.90
41427;DHT22;27171;51.812;19.514;2023-02-14T21:21:34;3.60;99.90
41427;DHT22;27171;51.812;19.514;2023-02-14T21:24:36;3.60;99.90
41427;DHT22;27171;51.812;19.514;2023-02-14T21:27:37;3.60;99.90
41427;DHT22;27171;51.812;19.514;2023-02-14T21:30:38;3.70;99.90
41427;DHT22;27171;51.812;19.514;2023-02-14T21:33:39;3.60;99.90
41427;DHT22;27171;51.812;19.514;2023-02-14T21:36:40;3.70;99.90
41427;DHT22;27171;51.812;19.514;2023-02-14T21:39:41;3.70;99.90
41427;DHT22;27171;51.812;19.514;2023-02-14T21:42:42;3.70;99.90
41427;DHT22;27171;51.812;19.514;2023-02-14T21:45:47;3.70;99.90
41427;DHT22;27171;51.812;19.514;2023-02-14T21:48:48;3.70;99.90
41427;DHT22;27171;51.812;19.514;2023-02-14T21:51:49;3.70;99.90
41427;DHT22;27171;51.812;19.514;2023-02-14T21:54:50;3.80;99.90
41427;DHT22;27171;51.812;19.514;2023-02-14T21:57:51;3.80;99.90
41427;DHT22;27171;51.812;19.514;2023-02-14T22:00:52;3.80;99.90
41427;DHT22;27171;51.812;19.514;2023-02-14T22:03:53;3.80;99.90
41427;DHT22;27171;51.812;19.514;2023-02-14T22:06:54;3.80;99.90
41427;DHT22;27171;51.812;19.514;2023-02-14T22:09:55;3.80;99.90
41427;DHT22;27171;51.812;19.514;2023-02-14T22:12:56;3.80;99.90